sensor_id;sensor_type;location;lat;lon;timestamp;P1;durP1;ratioP1;P2;durP2;ratioP2
19883;SDS011;10104;50.732;10.174;2023-12-20T00:00:00;1.13;;;0.93;;
19883;SDS011;10104;50.732;10.174;2023-12-20T00:02:40;1.53;;;1.00;;
19883;SDS011;10104;50.732;10.174;2023-12-20T00:05:25;0.87;;;0.77;;
19883;SDS011;10104;50.732;10.174;2023-12-20T00:08:05;0.73;;;0.73;;
19883;SDS011;10104;50.732;10.174;2023-12-20T00:10:45;1.43;;;1.10;;
19883;SDS011;10104;50.732;10.174;2023-12-20T00:13:25;1.00;;;0.90;;
19883;SDS011;10104;50.732;10.174;2023-12-20T00:16:05;1.50;;;1.00;;
19883;SDS011;10104;50.732;10.174;2023-12-20T00:18:46;1.10;;;1.00;;
19883;SDS011;10104;50.732;10.174;2023-12-20T00:21:26;1.00;;;0.80;;
19883;SDS011;10104;50.732;10.174;2023-12-20T00:24:07;1.60;;;1.00;;
19883;SDS011;10104;50.732;10.174;2023-12-20T00:26:47;1.10;;;0.90;;
19883;SDS011;10104;50.732;10.174;2023-12-20T00:29:27;1.47;;;1.10;;
19883;SDS011;10104;50.732;10.174;2023-12-20T00:32:07;0.67;;;0.67;;
19883;SDS011;10104;50.732;10.174;2023-12-20T00:34:47;1.00;;;0.90;;
19883;SDS011;10104;50.732;10.174;2023-12-20T00:37:28;1.40;;;1.10;;
19883;SDS011;10104;50.732;10.174;2023-12-20T00:40:08;1.27;;;1.00;;
19883;SDS011;10104;50.732;10.174;2023-12-20T00:42:49;1.33;;;1.07;;
19883;SDS011;10104;50.732;10.174;2023-12-20T00:45:29;0.97;;;0.83;;
19883;SDS011;10104;50.732;10.174;2023-12-20T00:48:09;1.00;;;0.90;;
19883;SDS011;10104;50.732;10.174;2023-12-20T00:50:49;0.93;;;0.80;;
19883;SDS011;10104;50.732;10.174;2023-12-20T00:53:29;1.00;;;0.90;;
19883;SDS011;10104;50.732;10.174;2023-12-20T00:56:10;0.97;;;0.80;;
19883;SDS011;10104;50.732;10.174;2023-12-20T00:58:50;1.00;;;0.90;;
19883;SDS011;10104;50.732;10.174;2023-12-20T01:01:30;0.80;;;0.80;;
19883;SDS011;10104;50.732;10.174;2023-12-20T01:04:13;1.00;;;0.83;;
19883;SDS011;10104;50.732;10.174;2023-12-20T01:06:53;1.27;;;0.90;;
19883;SDS011;10104;50.732;10.174;2023-12-20T01:09:33;0.83;;;0.77;;
19883;SDS011;10104;50.732;10.174;2023-12-20T01:12:13;0.77;;;0.70;;
19883;SDS011;10104;50.732;10.174;2023-12-20T01:14:55;1.13;;;0.87;;
19883;SDS011;10104;50.732;10.174;2023-12-20T01:17:35;1.00;;;0.90;;
19883;SDS011;10104;50.732;10.174;2023-12-20T01:20:16;0.80;;;0.70;;
19883;SDS011;10104;50.732;10.174;2023-12-20T01:22:57;0.60;;;0.60;;
19883;SDS011;10104;50.732;10.174;2023-12-20T01:25:37;1.07;;;0.87;;
19883;SDS011;10104;50.732;10.174;2023-12-20T01:28:17;0.90;;;0.90;;
19883;SDS011;10104;50.732;10.174;2023-12-20T01:30:57;0.53;;;0.53;;
19883;SDS011;10104;50.732;10.174;2023-12-20T01:33:38;0.90;;;0.80;;
19883;SDS011;10104;50.732;10.174;2023-12-20T01:36:18;0.80;;;0.73;;
19883;SDS011;10104;50.732;10.174;2023-12-20T01:38:59;0.93;;;0.80;;
19883;SDS011;10104;50.732;10.174;2023-12-20T01:41:39;0.80;;;0.60;;
19883;SDS011;10104;50.732;10.174;2023-12-20T01:44:20;1.03;;;0.80;;
19883;SDS011;10104;50.732;10.174;2023-12-20T01:47:01;0.70;;;0.70;;
19883;SDS011;10104;50.732;10.174;2023-12-20T01:49:41;0.70;;;0.70;;
19883;SDS011;10104;50.732;10.174;2023-12-20T01:52:22;0.67;;;0.60;;
19883;SDS011;10104;50.732;10.174;2023-12-20T01:55:04;1.37;;;0.70;;
19883;SDS011;10104;50.732;10.174;2023-12-20T01:57:53;1.67;;;0.60;;
19883;SDS011;10104;50.732;10.174;2023-12-20T02:00:33;0.93;;;0.50;;
19883;SDS011;10104;50.732;10.174;2023-12-20T02:03:15;0.70;;;0.53;;
19883;SDS011;10104;50.732;10.174;2023-12-20T02:05:56;0.77;;;0.63;;
19883;SDS011;10104;50.732;10.174;2023-12-20T02:08:37;0.67;;;0.67;;
19883;SDS011;10104;50.732;10.174;2023-12-20T02:11:17;0.60;;;0.60;;
19883;SDS011;10104;50.732;10.174;2023-12-20T02:13:57;0.90;;;0.80;;
19883;SDS011;10104;50.732;10.174;2023-12-20T02:16:37;1.03;;;0.80;;
19883;SDS011;10104;50.732;10.174;2023-12-20T02:19:18;0.97;;;0.73;;
19883;SDS011;10104;50.732;10.174;2023-12-20T02:22:33;0.90;;;0.80;;
19883;SDS011;10104;50.732;10.174;2023-12-20T02:25:06;2.33;;;1.20;;
19883;SDS011;10104;50.732;10.174;2023-12-20T02:27:47;0.83;;;0.70;;
19883;SDS011;10104;50.732;10.174;2023-12-20T02:30:28;1.00;;;0.80;;
19883;SDS011;10104;50.732;10.174;2023-12-20T02:33:10;0.90;;;0.70;;
19883;SDS011;10104;50.732;10.174;2023-12-20T02:35:52;1.27;;;1.07;;
19883;SDS011;10104;50.732;10.174;2023-12-20T02:38:32;1.50;;;1.17;;
19883;SDS011;10104;50.732;10.174;2023-12-20T02:41:14;1.60;;;1.23;;
19883;SDS011;10104;50.732;10.174;2023-12-20T02:43:56;1.03;;;0.90;;
19883;SDS011;10104;50.732;10.174;2023-12-20T02:46:36;0.93;;;0.83;;
19883;SDS011;10104;50.732;10.174;2023-12-20T02:49:16;1.10;;;1.00;;
19883;SDS011;10104;50.732;10.174;2023-12-20T02:51:57;1.67;;;1.30;;
19883;SDS011;10104;50.732;10.174;2023-12-20T02:54:37;1.57;;;1.20;;
19883;SDS011;10104;50.732;10.174;2023-12-20T02:57:18;1.03;;;0.90;;
19883;SDS011;10104;50.732;10.174;2023-12-20T02:59:58;1.47;;;1.00;;
19883;SDS011;10104;50.732;10.174;2023-12-20T03:02:37;0.93;;;0.83;;
19883;SDS011;10104;50.732;10.174;2023-12-20T03:05:18;0.90;;;0.80;;
19883;SDS011;10104;50.732;10.174;2023-12-20T03:07:59;1.00;;;0.80;;
19883;SDS011;10104;50.732;10.174;2023-12-20T03:10:38;1.40;;;1.03;;
19883;SDS011;10104;50.732;10.174;2023-12-20T03:13:19;1.00;;;0.90;;
19883;SDS011;10104;50.732;10.174;2023-12-20T03:15:59;1.10;;;0.97;;
19883;SDS011;10104;50.732;10.174;2023-12-20T03:18:40;1.30;;;0.97;;
19883;SDS011;10104;50.732;10.174;2023-12-20T03:21:20;1.37;;;1.20;;
19883;SDS011;10104;50.732;10.174;2023-12-20T03:24:00;1.30;;;0.97;;
19883;SDS011;10104;50.732;10.174;2023-12-20T03:26:41;1.60;;;1.13;;
19883;SDS011;10104;50.732;10.174;2023-12-20T03:29:21;1.93;;;1.57;;
19883;SDS011;10104;50.732;10.174;2023-12-20T03:32:01;3.20;;;1.40;;
19883;SDS011;10104;50.732;10.174;2023-12-20T03:34:41;1.43;;;1.20;;
19883;SDS011;10104;50.732;10.174;2023-12-20T03:37:22;1.83;;;1.53;;
19883;SDS011;10104;50.732;10.174;2023-12-20T03:40:03;1.73;;;1.50;;
19883;SDS011;10104;50.732;10.174;2023-12-20T03:42:43;1.30;;;1.20;;
19883;SDS011;10104;50.732;10.174;2023-12-20T03:45:24;2.13;;;1.20;;
19883;SDS011;10104;50.732;10.174;2023-12-20T03:48:04;1.60;;;1.30;;
19883;SDS011;10104;50.732;10.174;2023-12-20T03:50:45;1.67;;;1.30;;
19883;SDS011;10104;50.732;10.174;2023-12-20T03:53:25;1.90;;;1.67;;
19883;SDS011;10104;50.732;10.174;2023-12-20T03:56:06;1.60;;;1.50;;
19883;SDS011;10104;50.732;10.174;2023-12-20T03:58:46;1.93;;;1.13;;
19883;SDS011;10104;50.732;10.174;2023-12-20T04:01:26;1.07;;;0.97;;
19883;SDS011;10104;50.732;10.174;2023-12-20T04:04:07;1.80;;;1.40;;
19883;SDS011;10104;50.732;10.174;2023-12-20T04:06:47;1.07;;;0.97;;
19883;SDS011;10104;50.732;10.174;2023-12-20T04:09:28;1.10;;;0.90;;
19883;SDS011;10104;50.732;10.174;2023-12-20T04:12:08;1.13;;;1.00;;
19883;SDS011;10104;50.732;10.174;2023-12-20T04:14:48;1.10;;;1.00;;
19883;SDS011;10104;50.732;10.174;2023-12-20T04:17:29;1.00;;;0.80;;
19883;SDS011;10104;50.732;10.174;2023-12-20T04:20:09;1.47;;;1.00;;
19883;SDS011;10104;50.732;10.174;2023-12-20T04:22:50;1.43;;;0.90;;
19883;SDS011;10104;50.732;10.174;2023-12-20T04:25:30;1.20;;;1.00;;
19883;SDS011;10104;50.732;10.174;2023-12-20T04:28:11;1.60;;;1.13;;
19883;SDS011;10104;50.732;10.174;2023-12-20T04:30:51;1.00;;;0.80;;
19883;SDS011;10104;50.732;10.174;2023-12-20T04:33:31;1.17;;;1.07;;
19883;SDS011;10104;50.732;10.174;2023-12-20T04:36:11;1.13;;;0.93;;
19883;SDS011;10104;50.732;10.174;2023-12-20T04:38:53;0.97;;;0.80;;
19883;SDS011;10104;50.732;10.174;2023-12-20T04:41:33;1.07;;;0.70;;
19883;SDS011;10104;50.732;10.174;2023-12-20T04:44:13;0.93;;;0.73;;
19883;SDS011;10104;50.732;10.174;2023-12-20T04:46:53;0.87;;;0.70;;
19883;SDS011;10104;50.732;10.174;2023-12-20T04:49:34;0.90;;;0.80;;
19883;SDS011;10104;50.732;10.174;2023-12-20T04:52:14;0.77;;;0.70;;
19883;SDS011;10104;50.732;10.174;2023-12-20T04:54:54;0.97;;;0.80;;
19883;SDS011;10104;50.732;10.174;2023-12-20T04:57:35;0.80;;;0.80;;
19883;SDS011;10104;50.732;10.174;2023-12-20T05:00:15;1.17;;;1.00;;
19883;SDS011;10104;50.732;10.174;2023-12-20T05:02:55;1.40;;;1.17;;
19883;SDS011;10104;50.732;10.174;2023-12-20T05:05:36;1.20;;;0.93;;
19883;SDS011;10104;50.732;10.174;2023-12-20T05:08:16;1.77;;;1.40;;
19883;SDS011;10104;50.732;10.174;2023-12-20T05:10:56;1.60;;;1.40;;
19883;SDS011;10104;50.732;10.174;2023-12-20T05:13:37;1.60;;;1.50;;
19883;SDS011;10104;50.732;10.174;2023-12-20T05:16:28;2.00;;;1.60;;
19883;SDS011;10104;50.732;10.174;2023-12-20T05:19:08;1.87;;;1.40;;
19883;SDS011;10104;50.732;10.174;2023-12-20T05:21:48;1.97;;;1.70;;
19883;SDS011;10104;50.732;10.174;2023-12-20T05:24:29;2.03;;;1.80;;
19883;SDS011;10104;50.732;10.174;2023-12-20T05:27:10;2.63;;;2.17;;
19883;SDS011;10104;50.732;10.174;2023-12-20T05:29:51;2.43;;;2.07;;
19883;SDS011;10104;50.732;10.174;2023-12-20T05:32:31;3.37;;;2.20;;
19883;SDS011;10104;50.732;10.174;2023-12-20T05:35:11;3.10;;;2.57;;
19883;SDS011;10104;50.732;10.174;2023-12-20T05:37:52;2.97;;;2.27;;
19883;SDS011;10104;50.732;10.174;2023-12-20T05:40:32;2.37;;;2.10;;
19883;SDS011;10104;50.732;10.174;2023-12-20T05:43:12;3.73;;;2.70;;
19883;SDS011;10104;50.732;10.174;2023-12-20T05:45:52;8.00;;;3.50;;
19883;SDS011;10104;50.732;10.174;2023-12-20T05:48:32;4.10;;;2.70;;
19883;SDS011;10104;50.732;10.174;2023-12-20T05:51:13;3.47;;;3.13;;
19883;SDS011;10104;50.732;10.174;2023-12-20T05:53:53;6.90;;;3.03;;
19883;SDS011;10104;50.732;10.174;2023-12-20T05:56:34;3.80;;;3.40;;
19883;SDS011;10104;50.732;10.174;2023-12-20T05:59:14;4.53;;;3.50;;
19883;SDS011;10104;50.732;10.174;2023-12-20T06:01:54;4.57;;;3.93;;
19883;SDS011;10104;50.732;10.174;2023-12-20T06:04:35;7.40;;;4.10;;
19883;SDS011;10104;50.732;10.174;2023-12-20T06:07:16;5.33;;;3.50;;
19883;SDS011;10104;50.732;10.174;2023-12-20T06:09:57;4.67;;;3.93;;
19883;SDS011;10104;50.732;10.174;2023-12-20T06:12:37;4.73;;;3.90;;
19883;SDS011;10104;50.732;10.174;2023-12-20T06:15:18;5.30;;;3.90;;
19883;SDS011;10104;50.732;10.174;2023-12-20T06:17:58;6.20;;;4.27;;
19883;SDS011;10104;50.732;10.174;2023-12-20T06:20:38;9.17;;;3.43;;
19883;SDS011;10104;50.732;10.174;2023-12-20T06:23:18;7.90;;;3.97;;
19883;SDS011;10104;50.732;10.174;2023-12-20T06:25:58;5.97;;;3.60;;
19883;SDS011;10104;50.732;10.174;2023-12-20T06:28:39;5.93;;;3.70;;
19883;SDS011;10104;50.732;10.174;2023-12-20T06:31:21;4.90;;;3.67;;
19883;SDS011;10104;50.732;10.174;2023-12-20T06:34:01;5.33;;;3.63;;
19883;SDS011;10104;50.732;10.174;2023-12-20T06:36:42;6.00;;;3.10;;
19883;SDS011;10104;50.732;10.174;2023-12-20T06:39:22;5.07;;;3.20;;
19883;SDS011;10104;50.732;10.174;2023-12-20T06:42:03;5.43;;;3.60;;
19883;SDS011;10104;50.732;10.174;2023-12-20T06:44:43;7.20;;;3.70;;
19883;SDS011;10104;50.732;10.174;2023-12-20T06:47:23;5.83;;;3.60;;
19883;SDS011;10104;50.732;10.174;2023-12-20T06:50:05;4.73;;;3.07;;
19883;SDS011;10104;50.732;10.174;2023-12-20T06:52:45;6.97;;;2.80;;
19883;SDS011;10104;50.732;10.174;2023-12-20T06:55:26;5.60;;;2.63;;
19883;SDS011;10104;50.732;10.174;2023-12-20T06:58:06;5.77;;;2.43;;
19883;SDS011;10104;50.732;10.174;2023-12-20T07:00:46;5.33;;;2.37;;
19883;SDS011;10104;50.732;10.174;2023-12-20T07:03:26;4.67;;;2.83;;
19883;SDS011;10104;50.732;10.174;2023-12-20T07:06:07;3.80;;;2.50;;
19883;SDS011;10104;50.732;10.174;2023-12-20T07:08:48;5.00;;;2.60;;
19883;SDS011;10104;50.732;10.174;2023-12-20T07:11:28;7.47;;;2.70;;
19883;SDS011;10104;50.732;10.174;2023-12-20T07:14:09;6.10;;;2.53;;
19883;SDS011;10104;50.732;10.174;2023-12-20T07:16:49;3.77;;;2.80;;
19883;SDS011;10104;50.732;10.174;2023-12-20T07:19:29;5.53;;;2.40;;
19883;SDS011;10104;50.732;10.174;2023-12-20T07:22:10;5.00;;;2.30;;
19883;SDS011;10104;50.732;10.174;2023-12-20T07:24:50;7.07;;;2.43;;
19883;SDS011;10104;50.732;10.174;2023-12-20T07:27:32;5.00;;;2.23;;
19883;SDS011;10104;50.732;10.174;2023-12-20T07:30:12;5.50;;;2.10;;
19883;SDS011;10104;50.732;10.174;2023-12-20T07:32:53;7.00;;;2.63;;
19883;SDS011;10104;50.732;10.174;2023-12-20T07:35:34;5.93;;;2.57;;
19883;SDS011;10104;50.732;10.174;2023-12-20T07:38:14;5.10;;;2.13;;
19883;SDS011;10104;50.732;10.174;2023-12-20T07:40:54;6.47;;;2.37;;
19883;SDS011;10104;50.732;10.174;2023-12-20T07:43:34;6.37;;;2.10;;
19883;SDS011;10104;50.732;10.174;2023-12-20T07:46:15;5.53;;;2.43;;
19883;SDS011;10104;50.732;10.174;2023-12-20T07:48:55;2.27;;;1.80;;
19883;SDS011;10104;50.732;10.174;2023-12-20T07:51:35;5.37;;;2.13;;
19883;SDS011;10104;50.732;10.174;2023-12-20T07:54:15;7.10;;;2.40;;
19883;SDS011;10104;50.732;10.174;2023-12-20T07:56:56;2.77;;;1.97;;
19883;SDS011;10104;50.732;10.174;2023-12-20T07:59:37;5.83;;;2.00;;
19883;SDS011;10104;50.732;10.174;2023-12-20T08:02:17;3.37;;;2.03;;
19883;SDS011;10104;50.732;10.174;2023-12-20T08:04:57;6.17;;;2.17;;
19883;SDS011;10104;50.732;10.174;2023-12-20T08:07:37;5.03;;;2.53;;
19883;SDS011;10104;50.732;10.174;2023-12-20T08:10:18;4.93;;;2.23;;
19883;SDS011;10104;50.732;10.174;2023-12-20T08:13:00;7.00;;;2.20;;
19883;SDS011;10104;50.732;10.174;2023-12-20T08:15:40;6.13;;;2.23;;
19883;SDS011;10104;50.732;10.174;2023-12-20T08:18:20;8.07;;;2.33;;
19883;SDS011;10104;50.732;10.174;2023-12-20T08:21:00;6.83;;;2.13;;
19883;SDS011;10104;50.732;10.174;2023-12-20T08:23:41;6.83;;;2.67;;
19883;SDS011;10104;50.732;10.174;2023-12-20T08:26:21;4.30;;;2.20;;
19883;SDS011;10104;50.732;10.174;2023-12-20T08:29:04;4.87;;;2.50;;
19883;SDS011;10104;50.732;10.174;2023-12-20T08:31:44;6.30;;;2.20;;
19883;SDS011;10104;50.732;10.174;2023-12-20T08:34:26;5.60;;;2.03;;
19883;SDS011;10104;50.732;10.174;2023-12-20T08:37:07;3.50;;;2.00;;
19883;SDS011;10104;50.732;10.174;2023-12-20T08:39:47;4.57;;;1.87;;
19883;SDS011;10104;50.732;10.174;2023-12-20T08:42:27;4.37;;;2.20;;
19883;SDS011;10104;50.732;10.174;2023-12-20T08:45:11;9.30;;;2.07;;
19883;SDS011;10104;50.732;10.174;2023-12-20T08:47:51;7.07;;;2.33;;
19883;SDS011;10104;50.732;10.174;2023-12-20T08:50:32;5.67;;;2.30;;
19883;SDS011;10104;50.732;10.174;2023-12-20T08:53:12;6.67;;;2.03;;
19883;SDS011;10104;50.732;10.174;2023-12-20T08:55:52;6.30;;;2.10;;
19883;SDS011;10104;50.732;10.174;2023-12-20T08:58:32;5.53;;;2.00;;
19883;SDS011;10104;50.732;10.174;2023-12-20T09:01:13;4.37;;;1.90;;
19883;SDS011;10104;50.732;10.174;2023-12-20T09:03:54;4.73;;;1.70;;
19883;SDS011;10104;50.732;10.174;2023-12-20T09:06:35;6.67;;;2.57;;
19883;SDS011;10104;50.732;10.174;2023-12-20T09:09:15;7.17;;;2.20;;
19883;SDS011;10104;50.732;10.174;2023-12-20T09:11:55;6.30;;;2.07;;
19883;SDS011;10104;50.732;10.174;2023-12-20T09:14:36;8.60;;;2.27;;
19883;SDS011;10104;50.732;10.174;2023-12-20T09:17:16;5.30;;;2.33;;
19883;SDS011;10104;50.732;10.174;2023-12-20T09:19:57;8.70;;;2.67;;
19883;SDS011;10104;50.732;10.174;2023-12-20T09:22:39;4.50;;;1.90;;
19883;SDS011;10104;50.732;10.174;2023-12-20T09:25:19;4.77;;;2.40;;
19883;SDS011;10104;50.732;10.174;2023-12-20T09:28:00;4.60;;;1.97;;
19883;SDS011;10104;50.732;10.174;2023-12-20T09:30:40;5.53;;;1.83;;
19883;SDS011;10104;50.732;10.174;2023-12-20T09:33:20;5.80;;;2.07;;
19883;SDS011;10104;50.732;10.174;2023-12-20T09:36:01;7.13;;;2.30;;
19883;SDS011;10104;50.732;10.174;2023-12-20T09:38:41;5.53;;;2.20;;
19883;SDS011;10104;50.732;10.174;2023-12-20T09:41:23;4.77;;;2.40;;
19883;SDS011;10104;50.732;10.174;2023-12-20T09:44:06;5.53;;;2.23;;
19883;SDS011;10104;50.732;10.174;2023-12-20T09:46:49;5.83;;;1.90;;
19883;SDS011;10104;50.732;10.174;2023-12-20T09:49:30;4.73;;;1.97;;
19883;SDS011;10104;50.732;10.174;2023-12-20T09:52:12;5.23;;;2.00;;
19883;SDS011;10104;50.732;10.174;2023-12-20T09:54:54;2.53;;;1.80;;
19883;SDS011;10104;50.732;10.174;2023-12-20T09:57:35;3.07;;;1.63;;
19883;SDS011;10104;50.732;10.174;2023-12-20T10:00:15;4.90;;;1.63;;
19883;SDS011;10104;50.732;10.174;2023-12-20T10:02:58;3.90;;;2.10;;
19883;SDS011;10104;50.732;10.174;2023-12-20T10:05:39;6.33;;;2.20;;
19883;SDS011;10104;50.732;10.174;2023-12-20T10:08:23;3.73;;;1.73;;
19883;SDS011;10104;50.732;10.174;2023-12-20T10:11:04;8.40;;;2.30;;
19883;SDS011;10104;50.732;10.174;2023-12-20T10:13:45;6.83;;;2.10;;
19883;SDS011;10104;50.732;10.174;2023-12-20T10:16:28;3.83;;;1.50;;
19883;SDS011;10104;50.732;10.174;2023-12-20T10:19:08;3.10;;;1.87;;
19883;SDS011;10104;50.732;10.174;2023-12-20T10:21:49;6.80;;;1.97;;
19883;SDS011;10104;50.732;10.174;2023-12-20T10:24:29;11.03;;;2.23;;
19883;SDS011;10104;50.732;10.174;2023-12-20T10:27:09;4.97;;;1.90;;
19883;SDS011;10104;50.732;10.174;2023-12-20T10:29:50;5.93;;;2.10;;
19883;SDS011;10104;50.732;10.174;2023-12-20T10:32:31;8.37;;;2.23;;
19883;SDS011;10104;50.732;10.174;2023-12-20T10:35:11;4.37;;;2.30;;
19883;SDS011;10104;50.732;10.174;2023-12-20T10:37:52;6.53;;;2.40;;
19883;SDS011;10104;50.732;10.174;2023-12-20T10:40:36;5.90;;;2.20;;
19883;SDS011;10104;50.732;10.174;2023-12-20T10:43:17;4.47;;;1.90;;
19883;SDS011;10104;50.732;10.174;2023-12-20T10:45:58;3.00;;;1.47;;
19883;SDS011;10104;50.732;10.174;2023-12-20T10:48:39;4.60;;;1.43;;
19883;SDS011;10104;50.732;10.174;2023-12-20T10:51:21;4.93;;;1.77;;
19883;SDS011;10104;50.732;10.174;2023-12-20T10:54:02;4.93;;;2.07;;
19883;SDS011;10104;50.732;10.174;2023-12-20T10:56:43;6.67;;;1.97;;
19883;SDS011;10104;50.732;10.174;2023-12-20T10:59:25;7.37;;;2.23;;
19883;SDS011;10104;50.732;10.174;2023-12-20T11:02:09;6.50;;;1.73;;
19883;SDS011;10104;50.732;10.174;2023-12-20T11:04:55;5.53;;;2.00;;
19883;SDS011;10104;50.732;10.174;2023-12-20T11:07:55;6.23;;;1.97;;
19883;SDS011;10104;50.732;10.174;2023-12-20T11:13:34;2.90;;;1.50;;
19883;SDS011;10104;50.732;10.174;2023-12-20T11:16:20;2.83;;;1.53;;
19883;SDS011;10104;50.732;10.174;2023-12-20T11:19:06;5.83;;;1.60;;
19883;SDS011;10104;50.732;10.174;2023-12-20T11:21:46;7.77;;;1.90;;
19883;SDS011;10104;50.732;10.174;2023-12-20T11:24:27;10.43;;;2.47;;
19883;SDS011;10104;50.732;10.174;2023-12-20T11:27:07;4.87;;;1.97;;
19883;SDS011;10104;50.732;10.174;2023-12-20T11:29:58;2.77;;;1.73;;
19883;SDS011;10104;50.732;10.174;2023-12-20T11:32:39;9.20;;;2.37;;
19883;SDS011;10104;50.732;10.174;2023-12-20T11:35:19;7.07;;;2.03;;
19883;SDS011;10104;50.732;10.174;2023-12-20T11:38:00;4.10;;;1.63;;
19883;SDS011;10104;50.732;10.174;2023-12-20T11:40:41;6.83;;;1.93;;
19883;SDS011;10104;50.732;10.174;2023-12-20T11:43:38;4.30;;;1.90;;
19883;SDS011;10104;50.732;10.174;2023-12-20T11:46:19;5.80;;;1.67;;
19883;SDS011;10104;50.732;10.174;2023-12-20T11:49:00;7.93;;;1.77;;
19883;SDS011;10104;50.732;10.174;2023-12-20T11:51:41;6.03;;;2.37;;
19883;SDS011;10104;50.732;10.174;2023-12-20T11:54:22;2.87;;;1.80;;
19883;SDS011;10104;50.732;10.174;2023-12-20T11:57:02;7.27;;;2.03;;
19883;SDS011;10104;50.732;10.174;2023-12-20T11:59:43;5.37;;;1.70;;
19883;SDS011;10104;50.732;10.174;2023-12-20T12:02:23;6.33;;;1.80;;
19883;SDS011;10104;50.732;10.174;2023-12-20T12:05:03;5.60;;;1.80;;
19883;SDS011;10104;50.732;10.174;2023-12-20T12:07:45;4.67;;;1.60;;
19883;SDS011;10104;50.732;10.174;2023-12-20T12:10:26;4.80;;;1.87;;
19883;SDS011;10104;50.732;10.174;2023-12-20T12:13:06;6.13;;;1.40;;
19883;SDS011;10104;50.732;10.174;2023-12-20T12:15:47;2.47;;;1.40;;
19883;SDS011;10104;50.732;10.174;2023-12-20T12:18:28;6.67;;;1.50;;
19883;SDS011;10104;50.732;10.174;2023-12-20T12:21:08;6.53;;;2.17;;
19883;SDS011;10104;50.732;10.174;2023-12-20T12:24:07;4.27;;;1.50;;
19883;SDS011;10104;50.732;10.174;2023-12-20T12:26:51;5.13;;;1.53;;
19883;SDS011;10104;50.732;10.174;2023-12-20T12:29:31;2.23;;;1.30;;
19883;SDS011;10104;50.732;10.174;2023-12-20T12:32:11;4.43;;;1.50;;
19883;SDS011;10104;50.732;10.174;2023-12-20T12:34:52;4.97;;;1.33;;
19883;SDS011;10104;50.732;10.174;2023-12-20T12:37:37;2.73;;;1.20;;
19883;SDS011;10104;50.732;10.174;2023-12-20T12:40:20;2.83;;;1.33;;
19883;SDS011;10104;50.732;10.174;2023-12-20T12:43:00;5.93;;;1.80;;
19883;SDS011;10104;50.732;10.174;2023-12-20T12:45:40;3.10;;;1.60;;
19883;SDS011;10104;50.732;10.174;2023-12-20T12:48:20;4.40;;;1.27;;
19883;SDS011;10104;50.732;10.174;2023-12-20T12:51:01;5.53;;;1.40;;
19883;SDS011;10104;50.732;10.174;2023-12-20T12:53:41;4.73;;;1.10;;
19883;SDS011;10104;50.732;10.174;2023-12-20T12:56:21;3.83;;;1.50;;
19883;SDS011;10104;50.732;10.174;2023-12-20T12:59:02;3.10;;;1.50;;
19883;SDS011;10104;50.732;10.174;2023-12-20T13:01:42;4.47;;;1.17;;
19883;SDS011;10104;50.732;10.174;2023-12-20T13:04:23;5.63;;;1.40;;
19883;SDS011;10104;50.732;10.174;2023-12-20T13:07:03;3.00;;;1.40;;
19883;SDS011;10104;50.732;10.174;2023-12-20T13:09:44;2.63;;;1.03;;
19883;SDS011;10104;50.732;10.174;2023-12-20T13:12:25;3.43;;;1.17;;
19883;SDS011;10104;50.732;10.174;2023-12-20T13:15:04;5.77;;;1.60;;
19883;SDS011;10104;50.732;10.174;2023-12-20T13:17:45;3.00;;;1.00;;
19883;SDS011;10104;50.732;10.174;2023-12-20T13:20:27;3.60;;;1.23;;
19883;SDS011;10104;50.732;10.174;2023-12-20T13:23:07;1.93;;;1.10;;
19883;SDS011;10104;50.732;10.174;2023-12-20T13:25:47;4.67;;;1.50;;
19883;SDS011;10104;50.732;10.174;2023-12-20T13:28:27;6.53;;;1.50;;
19883;SDS011;10104;50.732;10.174;2023-12-20T13:31:08;3.87;;;1.37;;
19883;SDS011;10104;50.732;10.174;2023-12-20T13:33:48;5.67;;;1.40;;
19883;SDS011;10104;50.732;10.174;2023-12-20T13:36:28;5.43;;;1.53;;
19883;SDS011;10104;50.732;10.174;2023-12-20T13:39:09;3.30;;;1.57;;
19883;SDS011;10104;50.732;10.174;2023-12-20T13:41:49;6.80;;;1.53;;
19883;SDS011;10104;50.732;10.174;2023-12-20T13:44:29;4.63;;;1.60;;
19883;SDS011;10104;50.732;10.174;2023-12-20T13:47:10;6.27;;;1.40;;
19883;SDS011;10104;50.732;10.174;2023-12-20T13:49:50;4.87;;;1.40;;
19883;SDS011;10104;50.732;10.174;2023-12-20T13:52:30;3.07;;;1.40;;
19883;SDS011;10104;50.732;10.174;2023-12-20T13:55:10;2.70;;;1.07;;
19883;SDS011;10104;50.732;10.174;2023-12-20T13:57:51;4.10;;;1.97;;
19883;SDS011;10104;50.732;10.174;2023-12-20T14:00:35;3.53;;;1.30;;
19883;SDS011;10104;50.732;10.174;2023-12-20T14:03:16;2.53;;;1.40;;
19883;SDS011;10104;50.732;10.174;2023-12-20T14:05:56;2.83;;;1.30;;
19883;SDS011;10104;50.732;10.174;2023-12-20T14:08:36;5.40;;;1.30;;
19883;SDS011;10104;50.732;10.174;2023-12-20T14:11:17;5.30;;;1.70;;
19883;SDS011;10104;50.732;10.174;2023-12-20T14:13:58;2.83;;;1.50;;
19883;SDS011;10104;50.732;10.174;2023-12-20T14:16:39;2.17;;;1.13;;
19883;SDS011;10104;50.732;10.174;2023-12-20T14:19:19;4.73;;;1.43;;
19883;SDS011;10104;50.732;10.174;2023-12-20T14:21:59;2.33;;;1.33;;
19883;SDS011;10104;50.732;10.174;2023-12-20T14:24:41;4.13;;;1.20;;
19883;SDS011;10104;50.732;10.174;2023-12-20T14:27:21;5.73;;;1.40;;
19883;SDS011;10104;50.732;10.174;2023-12-20T14:30:04;4.10;;;1.10;;
19883;SDS011;10104;50.732;10.174;2023-12-20T14:32:45;4.57;;;1.60;;
19883;SDS011;10104;50.732;10.174;2023-12-20T14:35:27;7.47;;;1.67;;
19883;SDS011;10104;50.732;10.174;2023-12-20T14:38:07;6.63;;;1.70;;
19883;SDS011;10104;50.732;10.174;2023-12-20T14:40:48;6.37;;;1.40;;
19883;SDS011;10104;50.732;10.174;2023-12-20T14:43:28;2.10;;;1.30;;
19883;SDS011;10104;50.732;10.174;2023-12-20T14:46:08;3.57;;;1.43;;
19883;SDS011;10104;50.732;10.174;2023-12-20T14:48:48;6.03;;;1.63;;
19883;SDS011;10104;50.732;10.174;2023-12-20T14:51:29;4.67;;;1.37;;
19883;SDS011;10104;50.732;10.174;2023-12-20T14:54:10;3.60;;;1.20;;
19883;SDS011;10104;50.732;10.174;2023-12-20T14:56:50;5.03;;;1.90;;
19883;SDS011;10104;50.732;10.174;2023-12-20T14:59:30;9.63;;;1.83;;
19883;SDS011;10104;50.732;10.174;2023-12-20T15:02:11;4.07;;;1.70;;
19883;SDS011;10104;50.732;10.174;2023-12-20T15:04:51;3.77;;;1.73;;
19883;SDS011;10104;50.732;10.174;2023-12-20T15:07:31;6.07;;;1.47;;
19883;SDS011;10104;50.732;10.174;2023-12-20T15:10:11;2.97;;;1.80;;
19883;SDS011;10104;50.732;10.174;2023-12-20T15:12:52;5.53;;;1.90;;
19883;SDS011;10104;50.732;10.174;2023-12-20T15:15:33;4.97;;;2.10;;
19883;SDS011;10104;50.732;10.174;2023-12-20T15:18:13;6.60;;;2.00;;
19883;SDS011;10104;50.732;10.174;2023-12-20T15:20:54;5.70;;;1.87;;
19883;SDS011;10104;50.732;10.174;2023-12-20T15:23:35;8.60;;;2.27;;
19883;SDS011;10104;50.732;10.174;2023-12-20T15:26:15;5.97;;;1.60;;
19883;SDS011;10104;50.732;10.174;2023-12-20T15:28:55;4.37;;;1.80;;
19883;SDS011;10104;50.732;10.174;2023-12-20T15:31:37;6.33;;;1.90;;
19883;SDS011;10104;50.732;10.174;2023-12-20T15:34:21;11.20;;;1.97;;
19883;SDS011;10104;50.732;10.174;2023-12-20T15:37:01;4.53;;;1.70;;
19883;SDS011;10104;50.732;10.174;2023-12-20T15:39:42;3.90;;;1.70;;
19883;SDS011;10104;50.732;10.174;2023-12-20T15:42:23;7.37;;;1.77;;
19883;SDS011;10104;50.732;10.174;2023-12-20T15:45:03;4.60;;;1.87;;
19883;SDS011;10104;50.732;10.174;2023-12-20T15:47:44;4.93;;;1.53;;
19883;SDS011;10104;50.732;10.174;2023-12-20T15:50:25;6.97;;;2.33;;
19883;SDS011;10104;50.732;10.174;2023-12-20T15:53:06;3.23;;;1.77;;
19883;SDS011;10104;50.732;10.174;2023-12-20T15:55:46;4.90;;;1.70;;